createdAt,value
2018-04-17T05:03:18.975Z,10.40
2018-04-17T05:04:19.117Z,16.00
2018-04-17T05:05:19.282Z,16.80
2018-04-17T05:06:19.420Z,16.20
2018-04-17T05:07:19.596Z,18.40
2018-04-17T05:08:19.726Z,18.30
2018-04-17T05:09:19.943Z,19.10
2018-04-17T05:10:20.047Z,18.00
2018-04-17T05:11:20.205Z,17.70
2018-04-17T05:12:20.401Z,18.10
2018-04-17T05:13:20.588Z,17.30
2018-04-17T05:14:20.710Z,17.00
2018-04-17T05:15:20.882Z,17.40
2018-04-17T05:16:21.018Z,17.50
2018-04-17T05:17:21.188Z,18.20
2018-04-17T05:18:21.329Z,17.90
2018-04-17T05:19:21.495Z,19.00
2018-04-17T05:20:21.688Z,17.50
2018-04-17T05:21:21.867Z,16.70
2018-04-17T05:22:21.999Z,16.50
2018-04-17T05:23:22.171Z,17.50
2018-04-17T05:24:22.293Z,18.00
2018-04-17T05:25:22.468Z,17.80
2018-04-17T05:26:22.671Z,18.10
2018-04-17T05:27:22.816Z,18.00
2018-04-17T05:28:23.029Z,18.60
2018-04-17T05:29:23.166Z,18.60
2018-04-17T05:30:23.303Z,18.20
2018-04-17T05:31:23.452Z,17.70
2018-04-17T05:32:23.623Z,17.80
2018-04-17T05:33:23.746Z,17.50
2018-04-17T05:34:24.027Z,17.80
2018-04-17T05:35:24.145Z,17.30
2018-04-17T05:36:24.347Z,18.00
2018-04-17T05:37:24.394Z,17.10
2018-04-17T05:38:24.630Z,17.70
2018-04-17T05:39:24.773Z,17.50
2018-04-17T05:40:24.923Z,17.50
2018-04-17T05:41:25.092Z,17.90
2018-04-17T05:42:25.201Z,17.50
2018-04-17T05:43:25.387Z,17.70
2018-04-17T05:44:25.700Z,17.70
2018-04-17T05:45:25.767Z,18.00
2018-04-17T05:46:25.939Z,17.20
2018-04-17T05:47:26.069Z,16.60
2018-04-17T05:48:26.185Z,17.30
2018-04-17T05:49:26.413Z,17.50
2018-04-17T05:50:26.574Z,17.50
2018-04-17T05:51:26.770Z,17.50
2018-04-17T05:52:26.902Z,17.30
2018-04-17T05:53:26.995Z,17.90
2018-04-17T05:54:27.332Z,17.70
2018-04-17T05:55:27.378Z,16.80
2018-04-17T05:56:27.525Z,17.80
2018-04-17T05:57:27.769Z,17.10
2018-04-17T05:58:27.795Z,18.00
2018-04-17T05:59:28.022Z,17.70
2018-04-17T06:00:28.194Z,18.00
2018-04-17T06:01:28.386Z,17.40
2018-04-17T06:02:28.480Z,17.40
2018-04-17T06:03:28.681Z,17.60
2018-04-17T06:04:28.850Z,17.70
2018-04-17T06:05:29.029Z,17.40
2018-04-17T06:06:29.167Z,16.90
2018-04-17T06:07:29.310Z,17.50
2018-04-17T06:08:29.464Z,16.40
2018-04-17T06:09:29.655Z,17.00
2018-04-17T06:10:29.827Z,17.10
2018-04-17T06:11:29.927Z,17.10
2018-04-17T06:12:30.093Z,16.50
2018-04-17T06:13:30.290Z,16.90
2018-04-17T06:14:30.519Z,17.80
2018-04-17T06:15:30.749Z,17.30
2018-04-17T06:16:30.857Z,17.10
2018-04-17T06:17:31.062Z,17.50
2018-04-17T06:18:31.203Z,16.90
2018-04-17T06:19:31.324Z,17.20
2018-04-17T06:20:31.499Z,18.30
2018-04-17T06:21:31.640Z,18.30
2018-04-17T06:22:31.812Z,18.20
2018-04-17T06:23:32.011Z,17.90
2018-04-17T06:24:32.137Z,18.00
2018-04-17T06:25:32.315Z,17.50
2018-04-17T06:26:32.468Z,17.10
2018-04-17T06:27:32.691Z,17.00
2018-04-17T06:28:32.841Z,17.10
2018-04-17T06:29:33.021Z,17.80
2018-04-17T06:30:33.207Z,17.10
2018-04-17T06:31:33.354Z,17.60
2018-04-17T06:32:33.567Z,17.60
2018-04-17T06:33:33.712Z,17.30
2018-04-17T06:34:33.831Z,17.20
2018-04-17T06:35:34.042Z,18.10
2018-04-17T06:36:34.204Z,17.60
2018-04-17T06:37:34.358Z,18.60
2018-04-17T06:38:34.460Z,17.40
2018-04-17T06:39:34.630Z,17.30
2018-04-17T06:40:34.828Z,16.70
2018-04-17T06:41:35.034Z,18.50
2018-04-17T06:42:35.177Z,17.80
2018-04-17T06:43:35.237Z,17.70
2018-04-17T06:44:35.454Z,18.70
2018-04-17T06:45:35.643Z,18.50
2018-04-17T06:46:35.829Z,18.80
2018-04-17T06:47:36.003Z,18.80
2018-04-17T06:48:36.167Z,17.60
2018-04-17T06:49:36.409Z,17.80
2018-04-17T06:50:36.454Z,17.90
2018-04-17T06:51:36.668Z,18.20
2018-04-17T06:52:36.860Z,17.50
2018-04-17T06:53:37.003Z,18.10
2018-04-17T06:54:37.177Z,18.00
2018-04-17T06:55:37.242Z,18.90
2018-04-17T06:56:37.399Z,17.20
2018-04-17T06:57:37.602Z,17.50
2018-04-17T06:58:37.717Z,18.20
2018-04-17T06:59:37.892Z,17.50
2018-04-17T07:00:38.064Z,18.30
2018-04-17T07:01:38.242Z,18.90
2018-04-17T07:02:38.405Z,17.80
2018-04-17T07:03:38.578Z,18.50
2018-04-17T07:04:38.721Z,17.60
2018-04-17T07:05:38.883Z,18.20
2018-04-17T07:06:39.023Z,17.90
2018-04-17T07:07:39.177Z,18.60
2018-04-17T07:08:39.375Z,18.00
2018-04-17T07:09:39.490Z,17.10
2018-04-17T07:10:39.717Z,16.80
2018-04-17T07:11:39.887Z,18.30
2018-04-17T07:12:40.034Z,18.10
2018-04-17T07:13:40.146Z,18.20
2018-04-17T07:14:40.371Z,18.70
2018-04-17T07:15:40.481Z,18.90
2018-04-17T07:16:40.686Z,18.20
2018-04-17T07:17:40.804Z,18.50
2018-04-17T07:18:40.998Z,20.30
2018-04-17T07:19:41.140Z,20.80
2018-04-17T07:20:41.363Z,21.20
2018-04-17T07:21:41.506Z,22.30
2018-04-17T07:22:41.688Z,21.90
2018-04-17T07:23:41.942Z,22.50
2018-04-17T07:24:41.995Z,23.70
2018-04-17T07:25:42.240Z,23.00
2018-04-17T07:26:42.282Z,21.40
2018-04-17T07:27:42.458Z,21.20
2018-04-17T07:28:42.678Z,21.50
2018-04-17T07:29:42.781Z,23.30
2018-04-17T07:30:42.977Z,23.50
2018-04-17T07:31:43.114Z,23.90
2018-04-17T07:32:43.332Z,24.90
2018-04-17T07:33:43.545Z,25.50
2018-04-17T07:34:43.661Z,24.60
2018-04-17T07:35:43.806Z,23.70
2018-04-17T07:36:43.997Z,24.10
2018-04-17T07:37:44.149Z,24.30
2018-04-17T07:38:44.300Z,23.50
2018-04-17T07:39:44.506Z,23.00
2018-04-17T07:40:44.610Z,23.80
2018-04-17T07:41:44.818Z,22.70
2018-04-17T07:42:44.923Z,23.20
2018-04-17T07:43:45.146Z,22.90
2018-04-17T07:44:45.219Z,22.30
2018-04-17T07:45:45.469Z,22.20
2018-04-17T07:46:45.557Z,22.40
2018-04-17T07:47:45.739Z,22.60
2018-04-17T07:48:46.003Z,22.00
2018-04-17T07:49:46.057Z,21.50
2018-04-17T07:50:46.302Z,22.60
2018-04-17T07:51:46.405Z,22.20
2018-04-17T07:52:46.596Z,21.40
2018-04-17T07:53:46.815Z,23.10
2018-04-17T07:54:47.004Z,21.60
2018-04-17T07:55:47.218Z,23.50
2018-04-17T07:56:47.270Z,22.30
2018-04-17T07:57:47.501Z,22.60
2018-04-17T07:58:47.604Z,22.30
2018-04-17T07:59:47.775Z,22.00
2018-04-17T08:00:47.995Z,22.30
2018-04-17T08:01:48.253Z,21.70
2018-04-17T08:02:48.336Z,21.30
2018-04-17T08:03:48.489Z,21.80
2018-04-17T08:04:48.670Z,23.30
2018-04-17T08:05:48.814Z,21.20
2018-04-17T08:06:48.952Z,21.30
2018-04-17T08:07:49.145Z,21.70
2018-04-17T08:08:49.306Z,21.10
2018-04-17T08:09:49.515Z,21.70
2018-04-17T08:10:49.673Z,22.50
2018-04-17T08:11:49.868Z,22.30
2018-04-17T08:12:49.979Z,21.80
2018-04-17T08:13:50.179Z,21.60
2018-04-17T08:14:50.299Z,21.90
2018-04-17T08:15:50.514Z,21.90
2018-04-17T08:16:50.670Z,22.40
2018-04-17T08:17:50.813Z,22.40
2018-04-17T08:18:51.005Z,21.60
2018-04-17T08:19:51.181Z,21.50
2018-04-17T08:20:51.320Z,22.00
2018-04-17T08:21:51.560Z,22.40
2018-04-17T08:22:51.708Z,21.70
2018-04-17T08:23:51.788Z,21.00
2018-04-17T08:24:52.010Z,21.60
2018-04-17T08:25:52.201Z,21.70
2018-04-17T08:26:52.295Z,21.90
2018-04-17T08:27:52.510Z,21.00
2018-04-17T08:28:52.711Z,22.10
2018-04-17T08:29:52.813Z,20.90
2018-04-17T08:30:52.974Z,22.10
2018-04-17T08:31:53.236Z,22.00
2018-04-17T08:32:53.352Z,21.50
2018-04-17T08:33:53.556Z,21.40
2018-04-17T08:34:53.679Z,22.00
2018-04-17T08:35:53.841Z,22.00
2018-04-17T08:36:54.084Z,22.50
2018-04-17T08:37:54.170Z,21.80
2018-04-17T08:38:54.406Z,22.30
2018-04-17T08:39:54.593Z,21.90
2018-04-17T08:40:54.674Z,21.80
2018-04-17T08:41:54.861Z,22.50
2018-04-17T08:42:55.038Z,22.90
2018-04-17T08:43:55.189Z,22.70
2018-04-17T08:44:55.344Z,22.00
2018-04-17T08:45:55.503Z,21.80
2018-04-17T08:46:55.689Z,21.40
2018-04-17T08:47:55.867Z,21.60
2018-04-17T08:48:56.065Z,22.10
2018-04-17T08:49:56.242Z,21.90
2018-04-17T08:50:56.386Z,21.80
2018-04-17T08:51:56.493Z,21.20
2018-04-17T08:52:56.662Z,21.50
2018-04-17T08:53:56.887Z,21.50
2018-04-17T08:54:57.021Z,21.30
2018-04-17T08:55:57.159Z,22.40
2018-04-17T08:56:57.339Z,21.80
2018-04-17T08:57:57.610Z,21.70
2018-04-17T08:58:57.718Z,22.10
2018-04-17T08:59:57.897Z,22.10
2018-04-17T09:00:58.051Z,22.20
2018-04-17T09:01:58.235Z,21.70
2018-04-17T09:02:58.372Z,21.00
2018-04-17T09:03:58.597Z,22.00
2018-04-17T09:04:58.719Z,21.30
2018-04-17T09:05:58.913Z,21.30
2018-04-17T09:06:59.068Z,20.60
2018-04-17T09:07:59.231Z,20.20
2018-04-17T09:08:59.379Z,20.10
2018-04-17T09:09:59.533Z,17.80
2018-04-17T09:10:59.773Z,17.00
2018-04-17T09:12:00.000Z,17.50
2018-04-17T09:13:00.102Z,18.50
2018-04-17T09:14:00.309Z,18.20
2018-04-17T09:15:00.416Z,17.50
2018-04-17T09:16:00.627Z,17.90
2018-04-17T09:17:00.845Z,18.80
2018-04-17T09:18:00.918Z,19.50
2018-04-17T09:19:01.068Z,19.50
2018-04-17T09:20:01.262Z,17.70
2018-04-17T09:21:01.527Z,17.30
2018-04-17T09:22:01.646Z,16.80
2018-04-17T09:23:01.822Z,18.00
2018-04-17T09:24:01.946Z,18.40
2018-04-17T09:25:02.140Z,19.00
2018-04-17T09:26:02.374Z,18.80
2018-04-17T09:27:02.471Z,18.50
2018-04-17T09:28:02.702Z,15.30
2018-04-17T09:29:02.859Z,16.00
2018-04-17T09:30:02.973Z,16.10
2018-04-17T09:31:03.205Z,10.70
2018-04-17T09:32:03.365Z,14.50
2018-04-17T09:33:04.245Z,13.20
2018-04-17T09:34:03.746Z,13.30
2018-04-17T09:35:03.857Z,8.90
2018-04-17T09:36:04.080Z,10.10
2018-04-17T09:37:04.156Z,9.30
2018-04-17T09:38:04.339Z,9.00
2018-04-17T09:39:04.537Z,8.70
2018-04-17T09:40:04.672Z,8.50
2018-04-17T09:41:04.865Z,8.30
2018-04-17T09:42:05.045Z,7.80
2018-04-17T09:43:05.254Z,8.30
2018-04-17T09:44:05.414Z,8.50
2018-04-17T09:45:05.619Z,9.60
2018-04-17T09:46:05.767Z,9.30
2018-04-17T09:47:05.983Z,9.20
2018-04-17T09:48:06.187Z,9.50
2018-04-17T09:49:06.333Z,11.10
2018-04-17T09:50:06.565Z,11.60
2018-04-17T09:51:06.709Z,13.80
2018-04-17T09:52:06.862Z,13.10
2018-04-17T09:53:07.096Z,14.20
2018-04-17T09:54:07.260Z,13.40
2018-04-17T09:55:07.439Z,12.50
2018-04-17T09:56:07.570Z,11.70
2018-04-17T09:57:07.763Z,10.80
2018-04-17T09:58:07.962Z,11.90
2018-04-17T09:59:08.163Z,10.80
2018-04-17T10:00:08.313Z,12.40
2018-04-17T10:01:08.447Z,12.40
2018-04-17T10:02:08.702Z,11.20
2018-04-17T10:03:08.888Z,10.80
2018-04-17T10:04:09.060Z,11.50
2018-04-17T10:05:09.211Z,11.80
2018-04-17T10:06:09.363Z,12.70
2018-04-17T10:07:09.484Z,13.20
2018-04-17T10:08:09.744Z,12.20
2018-04-17T10:09:09.956Z,12.90
2018-04-17T10:10:10.109Z,12.00
2018-04-17T10:11:10.237Z,12.40
2018-04-17T10:12:10.433Z,12.60
2018-04-17T10:13:10.562Z,12.60
2018-04-17T10:14:10.741Z,12.90
2018-04-17T10:15:10.932Z,12.70
2018-04-17T10:16:11.101Z,12.00
2018-04-17T10:17:11.380Z,13.00
2018-04-17T10:18:11.567Z,11.20
2018-04-17T10:19:11.674Z,10.80
2018-04-17T10:20:11.850Z,10.60
2018-04-17T10:21:12.060Z,12.10
2018-04-17T10:22:12.211Z,11.30
2018-04-17T10:23:12.353Z,12.00
2018-04-17T10:24:12.530Z,11.80
2018-04-17T10:25:12.732Z,11.00
2018-04-17T10:26:12.903Z,11.70
2018-04-17T10:27:13.035Z,11.60
2018-04-17T10:28:13.232Z,11.40
2018-04-17T10:29:13.437Z,12.60
2018-04-17T10:30:13.643Z,11.90
2018-04-17T10:31:13.793Z,11.70
2018-04-17T10:32:13.978Z,11.70
2018-04-17T10:33:14.111Z,11.60
2018-04-17T10:34:14.321Z,12.40
2018-04-17T10:35:14.585Z,10.70
2018-04-17T10:36:14.734Z,12.80
2018-04-17T10:37:14.821Z,12.20
2018-04-17T10:38:15.010Z,12.70
2018-04-17T10:39:15.656Z,10.70
2018-04-17T10:40:15.290Z,11.40
2018-04-17T10:41:15.500Z,11.00
2018-04-17T10:42:15.711Z,10.00
2018-04-17T10:43:15.786Z,10.90
2018-04-17T10:44:16.028Z,10.80
2018-04-17T10:45:16.151Z,9.80
2018-04-17T10:46:16.363Z,11.00
2018-04-17T10:47:16.520Z,10.20
2018-04-17T10:48:16.702Z,11.00
2018-04-17T10:49:16.905Z,10.90
2018-04-17T10:50:17.035Z,10.50
2018-04-17T10:51:17.266Z,10.60
2018-04-17T10:52:17.454Z,10.90
2018-04-17T10:53:17.597Z,10.40
2018-04-17T10:54:17.752Z,10.00
2018-04-17T10:55:17.954Z,9.20
2018-04-17T10:56:18.185Z,10.10
2018-04-17T10:57:18.376Z,9.80
2018-04-17T10:58:18.496Z,9.00
2018-04-17T10:59:18.674Z,8.70
2018-04-17T11:00:18.842Z,8.00
2018-04-17T11:01:19.055Z,8.20
2018-04-17T11:02:19.226Z,8.70
2018-04-17T11:03:19.463Z,9.40
2018-04-17T11:04:19.568Z,8.80
2018-04-17T11:05:19.749Z,8.40
2018-04-17T11:06:19.927Z,8.30
2018-04-17T11:07:20.086Z,8.10
2018-04-17T11:08:20.234Z,8.10
2018-04-17T11:09:20.484Z,7.80
2018-04-17T11:10:20.644Z,7.50
2018-04-17T11:11:20.781Z,9.70
2018-04-17T11:12:20.984Z,9.30
2018-04-17T11:13:21.155Z,9.70
2018-04-17T11:14:21.360Z,9.00
2018-04-17T11:15:21.523Z,8.50
2018-04-17T11:16:21.678Z,7.80
2018-04-17T11:17:21.847Z,7.20
2018-04-17T11:18:22.018Z,7.60
2018-04-17T11:19:22.217Z,6.80
2018-04-17T11:20:22.356Z,7.10
2018-04-17T11:21:22.584Z,7.80
2018-04-17T11:22:22.763Z,7.00
2018-04-17T11:23:22.956Z,8.00
2018-04-17T11:24:23.114Z,6.30
2018-04-17T11:25:23.269Z,6.40
2018-04-17T11:26:23.445Z,6.90
2018-04-17T11:27:23.641Z,5.90
2018-04-17T11:28:23.835Z,6.30
2018-04-17T11:29:24.007Z,6.40
2018-04-17T11:30:24.190Z,6.20
2018-04-17T11:31:24.372Z,5.60
2018-04-17T11:32:24.503Z,5.40
2018-04-17T11:33:24.743Z,5.70
2018-04-17T11:34:24.903Z,5.80
2018-04-17T11:35:25.031Z,6.20
2018-04-17T11:36:25.283Z,7.30
2018-04-17T11:37:25.432Z,6.40
2018-04-17T11:38:25.641Z,6.10
2018-04-17T11:39:25.742Z,6.10
2018-04-17T11:40:25.972Z,6.10
2018-04-17T11:41:26.149Z,6.00
2018-04-17T11:42:26.351Z,5.70
2018-04-17T11:43:26.441Z,5.50
2018-04-17T11:44:26.635Z,5.60
2018-04-17T11:45:26.954Z,5.90
2018-04-17T11:46:27.092Z,6.20
2018-04-17T11:47:27.265Z,6.10
2018-04-17T11:48:27.425Z,5.90
2018-04-17T11:49:27.590Z,5.80
2018-04-17T11:50:27.801Z,5.70
2018-04-17T11:51:28.006Z,5.20
2018-04-17T11:52:28.083Z,5.90
2018-04-17T11:53:28.279Z,6.20
2018-04-17T11:54:28.439Z,6.40
2018-04-17T11:55:28.674Z,7.00
2018-04-17T11:56:28.827Z,6.10
2018-04-17T11:57:28.992Z,5.80
2018-04-17T11:58:29.246Z,6.20
2018-04-17T11:59:29.326Z,6.20
2018-04-17T12:00:29.585Z,5.80
2018-04-17T12:01:29.838Z,6.10
2018-04-17T12:02:29.927Z,5.30
2018-04-17T12:03:30.065Z,5.40
2018-04-17T12:04:30.281Z,5.20
2018-04-17T12:05:30.535Z,5.40
2018-04-17T12:06:30.659Z,5.20
2018-04-17T12:07:30.884Z,5.10
2018-04-17T12:08:31.035Z,5.00
2018-04-17T12:09:31.166Z,5.00
2018-04-17T12:10:31.362Z,4.80
2018-04-17T12:11:31.597Z,5.00
2018-04-17T12:12:31.812Z,5.10
2018-04-17T12:13:31.942Z,5.00
2018-04-17T12:14:32.128Z,4.10
2018-04-17T12:15:32.305Z,5.70
2018-04-17T12:16:32.470Z,4.90
2018-04-17T12:17:32.646Z,6.10
2018-04-17T12:18:32.849Z,4.50
2018-04-17T12:19:33.036Z,4.40
2018-04-17T12:20:33.220Z,3.90
2018-04-17T12:21:33.412Z,4.10
2018-04-17T12:22:33.574Z,3.90
2018-04-17T12:23:33.748Z,3.80
2018-04-17T12:24:33.994Z,3.40
2018-04-17T12:25:34.069Z,3.90
2018-04-17T12:26:34.245Z,3.40
2018-04-17T12:27:34.400Z,3.30
2018-04-17T12:28:34.628Z,3.50
2018-04-17T12:29:34.776Z,3.70
2018-04-17T12:30:34.999Z,4.20
2018-04-17T12:31:35.161Z,4.00
2018-04-17T12:32:35.327Z,4.20
2018-04-17T12:33:35.555Z,4.10
2018-04-17T12:34:35.743Z,4.50
2018-04-17T12:35:35.862Z,4.70
2018-04-17T12:36:36.038Z,4.20
2018-04-17T12:37:36.187Z,4.00
2018-04-17T12:38:36.386Z,4.10
2018-04-17T12:39:36.606Z,3.90
2018-04-17T12:40:36.811Z,4.20
2018-04-17T12:41:36.986Z,4.30
2018-04-17T12:42:37.155Z,4.00
2018-04-17T12:43:37.326Z,4.20
2018-04-17T12:44:37.554Z,4.50
2018-04-17T12:45:37.741Z,3.80
2018-04-17T12:46:37.823Z,4.20
2018-04-17T12:47:38.007Z,3.80
2018-04-17T12:48:38.214Z,3.60
2018-04-17T12:49:38.492Z,3.90
2018-04-17T12:50:38.671Z,4.20
2018-04-17T12:51:38.823Z,4.00
2018-04-17T12:52:39.061Z,4.10
2018-04-17T12:53:39.214Z,3.80
2018-04-17T12:54:39.385Z,3.50
2018-04-17T12:55:39.593Z,3.70
2018-04-17T12:56:39.882Z,3.70
2018-04-17T12:57:39.962Z,3.50
2018-04-17T12:58:40.193Z,4.30
2018-04-17T12:59:40.299Z,4.00
2018-04-17T13:00:40.456Z,4.00
2018-04-17T13:01:40.709Z,5.00
2018-04-17T13:02:40.881Z,4.80
2018-04-17T13:03:41.074Z,4.20
2018-04-17T13:04:41.276Z,3.90
2018-04-17T13:05:41.387Z,4.00
2018-04-17T13:06:41.575Z,4.10
2018-04-17T13:07:41.856Z,3.80
2018-04-17T13:08:42.006Z,3.90
2018-04-17T13:09:42.141Z,3.40
2018-04-17T13:10:42.319Z,3.60
2018-04-17T13:11:42.511Z,3.50
2018-04-17T13:12:42.721Z,3.90
2018-04-17T13:13:42.887Z,3.90
2018-04-17T13:14:43.081Z,4.00
2018-04-17T13:15:43.274Z,4.30
2018-04-17T13:16:43.408Z,3.90
2018-04-17T13:17:43.613Z,3.50
2018-04-17T13:18:43.789Z,3.60
2018-04-17T13:19:44.006Z,3.80
2018-04-17T13:20:44.247Z,3.40
2018-04-17T13:21:44.419Z,3.20
2018-04-17T13:22:44.527Z,3.40
2018-04-17T13:23:44.787Z,3.50
2018-04-17T13:24:44.906Z,2.90
2018-04-17T13:25:45.127Z,3.50
2018-04-17T13:26:45.287Z,3.50
2018-04-17T13:27:45.496Z,3.80
2018-04-17T13:28:45.660Z,3.80
2018-04-17T13:29:45.814Z,3.50
2018-04-17T13:30:45.966Z,3.50
2018-04-17T13:31:46.147Z,3.30
2018-04-17T13:32:46.298Z,4.10
2018-04-17T13:33:46.563Z,4.00
2018-04-17T13:34:46.693Z,4.00
2018-04-17T13:35:46.882Z,3.40
2018-04-17T13:36:47.125Z,3.60
2018-04-17T13:37:47.326Z,3.00
2018-04-17T13:38:47.507Z,3.80
2018-04-17T13:39:47.630Z,4.00
2018-04-17T13:40:47.788Z,3.40
2018-04-17T13:41:48.017Z,3.70
2018-04-17T13:42:48.202Z,3.20
2018-04-17T13:43:48.320Z,3.10
2018-04-17T13:44:48.588Z,3.00
2018-04-17T13:45:48.686Z,2.80
2018-04-17T13:46:48.907Z,3.00
2018-04-17T13:47:49.077Z,2.70
2018-04-17T13:48:49.249Z,2.50
2018-04-17T13:49:49.456Z,2.50
2018-04-17T13:50:49.672Z,2.90
2018-04-17T13:51:49.809Z,2.60
2018-04-17T13:52:50.004Z,2.50
2018-04-17T13:53:50.198Z,2.90
2018-04-17T13:54:50.311Z,2.70
2018-04-17T13:55:50.449Z,2.80
2018-04-17T13:56:50.680Z,2.90
2018-04-17T13:57:50.833Z,2.60
2018-04-17T13:58:51.043Z,2.30
2018-04-17T13:59:51.226Z,2.60
2018-04-17T14:00:51.361Z,2.40
2018-04-17T14:01:51.580Z,2.30
2018-04-17T14:02:51.693Z,2.60
2018-04-17T14:03:51.957Z,2.40
2018-04-17T14:04:52.122Z,2.80
2018-04-17T14:05:52.284Z,2.90
2018-04-17T14:06:52.529Z,2.50
2018-04-17T14:07:52.709Z,2.90
2018-04-17T14:08:52.852Z,2.90
2018-04-17T14:09:53.044Z,2.50
2018-04-17T14:10:53.216Z,2.70
2018-04-17T14:11:53.358Z,2.90
2018-04-17T14:12:53.589Z,2.80
2018-04-17T14:13:53.725Z,2.90
2018-04-17T14:14:53.917Z,2.70
2018-04-17T14:15:54.114Z,2.50
2018-04-17T14:16:54.293Z,2.90
2018-04-17T14:17:54.475Z,3.20
2018-04-17T14:18:54.653Z,3.10
2018-04-17T14:19:54.842Z,3.70
2018-04-17T14:20:54.976Z,2.80
2018-04-17T14:21:55.124Z,3.00
2018-04-17T14:22:55.284Z,2.80
2018-04-17T14:23:55.525Z,2.70
2018-04-17T14:24:55.710Z,3.20
2018-04-17T14:25:55.847Z,3.00
2018-04-17T14:26:56.002Z,2.80
2018-04-17T14:27:56.240Z,2.80
2018-04-17T14:28:56.385Z,2.70
2018-04-17T14:29:56.617Z,2.60
2018-04-17T14:30:56.762Z,3.00
2018-04-17T14:31:56.918Z,3.00
2018-04-17T14:32:57.177Z,2.90
2018-04-17T14:33:57.329Z,3.10
2018-04-17T14:34:57.536Z,2.90
2018-04-17T14:35:57.755Z,3.00
2018-04-17T14:36:57.927Z,3.20
2018-04-17T14:37:58.068Z,5.50
2018-04-17T14:38:58.268Z,3.10
2018-04-17T14:39:58.478Z,2.90
2018-04-17T14:40:58.690Z,2.80
2018-04-17T14:41:58.836Z,2.70
2018-04-17T14:42:59.024Z,2.60
2018-04-17T14:43:59.246Z,3.10
2018-04-17T14:44:59.374Z,2.90
2018-04-17T14:45:59.537Z,2.50
2018-04-17T14:46:59.765Z,2.30
2018-04-17T14:47:59.902Z,2.50
2018-04-17T14:49:00.031Z,2.70
2018-04-17T14:50:00.266Z,2.80
2018-04-17T14:51:00.458Z,2.90
2018-04-17T14:52:00.647Z,3.10
2018-04-17T14:53:00.838Z,3.00
2018-04-17T14:54:00.986Z,2.90
2018-04-17T14:55:01.171Z,3.10
2018-04-17T14:56:01.334Z,2.70
2018-04-17T14:57:01.537Z,2.70
2018-04-17T14:58:01.741Z,2.30
2018-04-17T14:59:01.860Z,2.50
2018-04-17T15:00:02.061Z,2.70
2018-04-17T15:01:02.216Z,2.50
2018-04-17T15:02:02.377Z,2.90
2018-04-17T15:03:02.604Z,2.70
2018-04-17T15:04:02.804Z,2.70
2018-04-17T15:05:02.950Z,3.00
2018-04-17T15:06:03.100Z,2.80
2018-04-17T15:07:03.290Z,2.60
2018-04-17T15:08:03.410Z,2.80
2018-04-17T15:09:03.657Z,2.90
2018-04-17T15:10:03.837Z,3.00
2018-04-17T15:11:04.029Z,2.90
2018-04-17T15:12:04.201Z,2.80
2018-04-17T15:13:04.457Z,2.80
2018-04-17T15:14:04.578Z,2.50
2018-04-17T15:15:04.792Z,2.60
2018-04-17T15:16:04.960Z,2.50
2018-04-17T15:17:05.077Z,2.60
2018-04-17T15:18:05.280Z,2.70
2018-04-17T15:19:05.463Z,2.50
2018-04-17T15:20:05.679Z,2.30
2018-04-17T15:21:05.859Z,2.60
2018-04-17T15:22:06.019Z,2.50
2018-04-17T15:23:06.211Z,2.40
2018-04-17T15:24:06.349Z,2.40
2018-04-17T15:25:06.590Z,2.00
2018-04-17T15:26:06.743Z,2.50
2018-04-17T15:27:06.942Z,2.20
2018-04-17T15:28:07.130Z,2.50
2018-04-17T15:29:07.272Z,2.40
2018-04-17T15:30:07.471Z,2.10
2018-04-17T15:31:07.614Z,2.50
2018-04-17T15:32:07.856Z,2.30
2018-04-17T15:33:08.023Z,2.30
2018-04-17T15:34:08.147Z,2.40
2018-04-17T15:35:08.405Z,2.30
2018-04-17T15:36:08.577Z,2.40
2018-04-17T15:37:08.733Z,2.30
2018-04-17T15:38:08.868Z,2.20
2018-04-17T15:39:09.003Z,2.10
2018-04-17T15:40:09.224Z,2.40
2018-04-17T15:41:09.371Z,2.40
2018-04-17T15:42:09.639Z,2.20
2018-04-17T15:43:09.815Z,2.50
2018-04-17T15:44:09.962Z,2.30
2018-04-17T15:45:10.104Z,2.10
2018-04-17T15:46:10.285Z,2.20
2018-04-17T15:47:10.458Z,2.10
2018-04-17T15:48:10.675Z,2.30
2018-04-17T15:49:10.912Z,2.10
2018-04-17T15:50:11.015Z,2.60
2018-04-17T15:51:11.215Z,2.30
2018-04-17T15:52:11.397Z,2.10
2018-04-17T15:53:11.528Z,2.50
2018-04-17T15:54:11.754Z,2.20
2018-04-17T15:55:11.869Z,2.30
2018-04-17T15:56:12.050Z,2.30
2018-04-17T15:57:12.227Z,2.30
2018-04-17T15:58:12.436Z,2.20
2018-04-17T15:59:12.556Z,2.20
2018-04-17T16:00:12.726Z,2.30
2018-04-17T16:01:12.978Z,2.40
2018-04-17T16:02:13.110Z,2.20
2018-04-17T16:03:13.276Z,2.30
2018-04-17T16:04:13.411Z,2.30
2018-04-17T16:05:13.608Z,2.20
2018-04-17T16:06:13.794Z,2.10
2018-04-17T16:07:13.927Z,2.10
2018-04-17T16:08:14.133Z,2.10
2018-04-17T16:09:14.345Z,2.20
2018-04-17T16:10:14.471Z,1.80
2018-04-17T16:11:14.716Z,2.30
2018-04-17T16:12:14.857Z,2.30
2018-04-17T16:13:15.040Z,2.20
2018-04-17T16:14:15.293Z,1.90
2018-04-17T16:15:15.381Z,2.00
2018-04-17T16:16:15.504Z,2.20
2018-04-17T16:17:15.736Z,2.10
2018-04-17T16:18:15.911Z,2.40
2018-04-17T16:19:16.015Z,2.40
2018-04-17T16:20:16.220Z,2.30
2018-04-17T16:21:16.431Z,2.70
2018-04-17T16:22:16.581Z,2.40
2018-04-17T16:23:16.748Z,2.00
2018-04-17T16:24:16.912Z,2.20
2018-04-17T16:25:17.086Z,2.30
2018-04-17T16:26:17.274Z,2.00
2018-04-17T16:27:17.419Z,2.30
2018-04-17T16:28:17.614Z,2.20
2018-04-17T16:29:17.805Z,2.30
2018-04-17T16:30:17.966Z,2.40
2018-04-17T16:31:18.101Z,2.30
2018-04-17T16:32:18.290Z,2.20
2018-04-17T16:33:18.568Z,2.20
2018-04-17T16:34:18.754Z,2.10
2018-04-17T16:35:18.887Z,2.10
2018-04-17T16:36:19.049Z,2.30
2018-04-17T16:37:19.167Z,2.30
2018-04-17T16:38:19.423Z,2.20
2018-04-17T16:39:19.549Z,2.10
2018-04-17T16:40:19.735Z,2.10
2018-04-17T16:41:19.867Z,2.10
2018-04-17T16:42:20.117Z,2.80
2018-04-17T16:43:20.247Z,2.30
2018-04-17T16:44:20.464Z,2.10
2018-04-17T16:45:20.624Z,1.90
2018-04-17T16:46:20.858Z,2.20
2018-04-17T16:47:20.969Z,2.40
2018-04-17T16:48:21.153Z,2.30
2018-04-17T16:49:21.311Z,2.60
2018-04-17T16:50:21.490Z,2.00
2018-04-17T16:51:21.710Z,2.00
2018-04-17T16:52:21.862Z,2.10
2018-04-17T16:53:22.007Z,2.00
2018-04-17T16:54:22.164Z,2.20
2018-04-17T16:55:22.363Z,2.40
2018-04-17T16:56:22.614Z,2.40
2018-04-17T16:57:22.780Z,2.30
2018-04-17T16:58:22.910Z,2.20
2018-04-17T16:59:23.177Z,2.20
2018-04-17T17:00:23.301Z,2.10
2018-04-17T17:01:23.436Z,2.50
2018-04-17T17:02:23.589Z,2.20
2018-04-17T17:03:23.769Z,2.40
2018-04-17T17:04:23.971Z,2.70
2018-04-17T17:05:24.188Z,2.50
2018-04-17T17:06:24.293Z,2.80
2018-04-17T17:07:24.474Z,2.90
2018-04-17T17:08:24.703Z,2.50
2018-04-17T17:09:24.872Z,2.40
2018-04-17T17:10:25.018Z,2.40
2018-04-17T17:11:25.190Z,2.60
2018-04-17T17:12:25.348Z,2.50
2018-04-17T17:13:25.528Z,2.30
2018-04-17T17:14:25.787Z,2.30
2018-04-17T17:15:25.936Z,2.20
2018-04-17T17:16:26.109Z,2.30
2018-04-17T17:17:26.285Z,2.70
2018-04-17T17:18:26.431Z,2.50
2018-04-17T17:19:26.611Z,2.40
2018-04-17T17:20:26.732Z,2.30
2018-04-17T17:21:26.971Z,2.30
2018-04-17T17:22:27.108Z,2.50
2018-04-17T17:23:27.250Z,2.40
2018-04-17T17:24:27.492Z,2.40
2018-04-17T17:25:27.628Z,2.30
2018-04-17T17:26:27.819Z,2.30
2018-04-17T17:27:27.963Z,2.50
2018-04-17T17:28:28.071Z,3.30
2018-04-17T17:29:28.246Z,3.10
2018-04-17T17:30:28.470Z,2.70
2018-04-17T17:31:28.595Z,2.50
2018-04-17T17:32:28.806Z,2.50
2018-04-17T17:33:28.993Z,2.30
2018-04-17T17:34:29.126Z,2.60
2018-04-17T17:35:29.328Z,2.40
2018-04-17T17:36:29.455Z,2.60
2018-04-17T17:37:29.689Z,2.40
2018-04-17T17:38:29.830Z,2.30
2018-04-17T17:39:30.012Z,2.30
2018-04-17T17:40:30.139Z,2.30
2018-04-17T17:41:30.314Z,2.20
2018-04-17T17:42:30.502Z,2.30
2018-04-17T17:43:30.646Z,2.40
2018-04-17T17:44:30.835Z,2.30
2018-04-17T17:45:31.031Z,2.40
2018-04-17T17:46:31.155Z,2.30
2018-04-17T17:47:31.328Z,2.20
2018-04-17T17:48:31.546Z,2.50
2018-04-17T17:49:31.730Z,2.30
2018-04-17T17:50:31.915Z,2.40
2018-04-17T17:51:32.038Z,2.70
2018-04-17T17:52:32.289Z,2.40
2018-04-17T17:53:32.393Z,2.50
2018-04-17T17:54:32.599Z,3.90
2018-04-17T17:55:32.689Z,5.20
2018-04-17T17:56:32.872Z,7.00
2018-04-17T17:57:33.089Z,7.30
2018-04-17T17:58:33.212Z,6.90
2018-04-17T17:59:33.394Z,6.00
2018-04-17T18:00:33.607Z,5.30
2018-04-17T18:01:33.744Z,5.00
2018-04-17T18:02:33.905Z,4.10
2018-04-17T18:03:34.128Z,3.70
2018-04-17T18:04:34.257Z,3.80
2018-04-17T18:05:34.490Z,4.10
2018-04-17T18:06:34.646Z,4.00
2018-04-17T18:07:34.768Z,4.50
2018-04-17T18:08:34.926Z,5.10
2018-04-17T18:09:35.072Z,4.70
2018-04-17T18:10:35.300Z,4.90
2018-04-17T18:11:35.481Z,4.40
2018-04-17T18:12:35.636Z,3.80